sensor_id;sensor_type;location;lat;lon;timestamp;P1;durP1;ratioP1;P2;durP2;ratioP2
36415;SDS011;22447;44.530;18.620;2023-01-30T00:01:34;90.20;;;44.08;;
36415;SDS011;22447;44.530;18.620;2023-01-30T00:04:00;69.15;;;33.60;;
36415;SDS011;22447;44.530;18.620;2023-01-30T00:06:26;65.18;;;33.08;;
36415;SDS011;22447;44.530;18.620;2023-01-30T00:08:52;69.68;;;33.55;;
36415;SDS011;22447;44.530;18.620;2023-01-30T00:11:18;88.55;;;40.38;;
36415;SDS011;22447;44.530;18.620;2023-01-30T00:13:46;83.13;;;41.60;;
36415;SDS011;22447;44.530;18.620;2023-01-30T00:16:13;75.50;;;35.88;;
36415;SDS011;22447;44.530;18.620;2023-01-30T00:18:40;66.78;;;32.28;;
36415;SDS011;22447;44.530;18.620;2023-01-30T00:21:07;58.08;;;28.80;;
36415;SDS011;22447;44.530;18.620;2023-01-30T00:23:35;58.17;;;29.27;;
36415;SDS011;22447;44.530;18.620;2023-01-30T00:26:02;65.50;;;30.27;;
36415;SDS011;22447;44.530;18.620;2023-01-30T00:28:29;57.28;;;30.08;;
36415;SDS011;22447;44.530;18.620;2023-01-30T00:30:55;58.95;;;29.48;;
36415;SDS011;22447;44.530;18.620;2023-01-30T00:33:22;58.72;;;29.15;;
36415;SDS011;22447;44.530;18.620;2023-01-30T00:35:50;63.45;;;29.75;;
36415;SDS011;22447;44.530;18.620;2023-01-30T00:38:17;62.72;;;28.63;;
36415;SDS011;22447;44.530;18.620;2023-01-30T00:40:44;61.63;;;30.38;;
36415;SDS011;22447;44.530;18.620;2023-01-30T00:43:12;69.55;;;31.98;;
36415;SDS011;22447;44.530;18.620;2023-01-30T00:45:58;59.72;;;29.77;;
36415;SDS011;22447;44.530;18.620;2023-01-30T00:48:44;63.28;;;30.65;;
36415;SDS011;22447;44.530;18.620;2023-01-30T00:51:10;61.20;;;30.30;;
36415;SDS011;22447;44.530;18.620;2023-01-30T00:53:36;59.92;;;30.60;;
36415;SDS011;22447;44.530;18.620;2023-01-30T00:56:02;61.17;;;30.90;;
36415;SDS011;22447;44.530;18.620;2023-01-30T00:58:29;60.22;;;29.83;;
36415;SDS011;22447;44.530;18.620;2023-01-30T01:00:54;63.65;;;31.77;;
36415;SDS011;22447;44.530;18.620;2023-01-30T01:03:22;125.35;;;46.75;;
36415;SDS011;22447;44.530;18.620;2023-01-30T01:05:47;161.80;;;56.85;;
36415;SDS011;22447;44.530;18.620;2023-01-30T01:08:13;133.10;;;49.88;;
36415;SDS011;22447;44.530;18.620;2023-01-30T01:10:39;195.32;;;64.95;;
36415;SDS011;22447;44.530;18.620;2023-01-30T01:13:05;141.60;;;50.80;;
36415;SDS011;22447;44.530;18.620;2023-01-30T01:15:31;116.95;;;47.13;;
36415;SDS011;22447;44.530;18.620;2023-01-30T01:17:58;95.43;;;39.13;;
36415;SDS011;22447;44.530;18.620;2023-01-30T01:20:25;63.42;;;32.22;;
36415;SDS011;22447;44.530;18.620;2023-01-30T01:22:52;173.10;;;60.67;;
36415;SDS011;22447;44.530;18.620;2023-01-30T01:25:19;120.50;;;45.72;;
36415;SDS011;22447;44.530;18.620;2023-01-30T01:27:46;99.05;;;38.95;;
36415;SDS011;22447;44.530;18.620;2023-01-30T01:30:15;111.55;;;43.17;;
36415;SDS011;22447;44.530;18.620;2023-01-30T01:32:42;101.47;;;39.00;;
36415;SDS011;22447;44.530;18.620;2023-01-30T01:35:08;78.95;;;34.78;;
36415;SDS011;22447;44.530;18.620;2023-01-30T01:37:35;82.93;;;33.75;;
36415;SDS011;22447;44.530;18.620;2023-01-30T01:40:02;69.25;;;32.63;;
36415;SDS011;22447;44.530;18.620;2023-01-30T01:42:47;108.70;;;43.83;;
36415;SDS011;22447;44.530;18.620;2023-01-30T01:45:19;71.93;;;32.75;;
36415;SDS011;22447;44.530;18.620;2023-01-30T01:50:37;94.68;;;40.22;;
36415;SDS011;22447;44.530;18.620;2023-01-30T01:53:14;90.38;;;38.92;;
36415;SDS011;22447;44.530;18.620;2023-01-30T01:55:43;96.18;;;41.58;;
36415;SDS011;22447;44.530;18.620;2023-01-30T01:58:19;92.55;;;40.25;;
36415;SDS011;22447;44.530;18.620;2023-01-30T02:00:53;80.28;;;36.33;;
36415;SDS011;22447;44.530;18.620;2023-01-30T02:03:23;77.88;;;35.17;;
36415;SDS011;22447;44.530;18.620;2023-01-30T02:05:52;68.22;;;32.65;;
36415;SDS011;22447;44.530;18.620;2023-01-30T02:08:33;72.40;;;35.10;;
36415;SDS011;22447;44.530;18.620;2023-01-30T02:13:57;63.15;;;31.40;;
36415;SDS011;22447;44.530;18.620;2023-01-30T02:16:26;64.93;;;32.95;;
36415;SDS011;22447;44.530;18.620;2023-01-30T02:18:52;63.97;;;32.15;;
36415;SDS011;22447;44.530;18.620;2023-01-30T02:34:57;58.38;;;30.00;;
36415;SDS011;22447;44.530;18.620;2023-01-30T02:43:33;58.75;;;29.83;;
36415;SDS011;22447;44.530;18.620;2023-01-30T02:46:14;61.70;;;31.75;;
36415;SDS011;22447;44.530;18.620;2023-01-30T02:48:52;63.63;;;30.48;;
36415;SDS011;22447;44.530;18.620;2023-01-30T02:51:28;68.80;;;36.38;;
36415;SDS011;22447;44.530;18.620;2023-01-30T02:53:56;101.50;;;50.88;;
36415;SDS011;22447;44.530;18.620;2023-01-30T02:56:23;64.13;;;33.20;;
36415;SDS011;22447;44.530;18.620;2023-01-30T02:59:00;55.05;;;29.90;;
36415;SDS011;22447;44.530;18.620;2023-01-30T03:17:51;64.38;;;31.58;;
36415;SDS011;22447;44.530;18.620;2023-01-30T03:20:21;67.97;;;32.05;;
36415;SDS011;22447;44.530;18.620;2023-01-30T03:22:47;60.30;;;30.77;;
36415;SDS011;22447;44.530;18.620;2023-01-30T03:25:14;61.65;;;31.83;;
36415;SDS011;22447;44.530;18.620;2023-01-30T03:27:43;67.85;;;33.40;;
36415;SDS011;22447;44.530;18.620;2023-01-30T03:30:11;61.22;;;30.65;;
36415;SDS011;22447;44.530;18.620;2023-01-30T03:32:37;62.47;;;31.23;;
36415;SDS011;22447;44.530;18.620;2023-01-30T03:35:03;62.00;;;32.50;;
36415;SDS011;22447;44.530;18.620;2023-01-30T03:37:29;60.42;;;30.98;;
36415;SDS011;22447;44.530;18.620;2023-01-30T03:39:56;64.22;;;31.90;;
36415;SDS011;22447;44.530;18.620;2023-01-30T03:42:23;60.80;;;31.98;;
36415;SDS011;22447;44.530;18.620;2023-01-30T03:44:49;61.58;;;31.85;;
36415;SDS011;22447;44.530;18.620;2023-01-30T03:47:15;68.13;;;30.45;;
36415;SDS011;22447;44.530;18.620;2023-01-30T03:49:41;68.00;;;32.00;;
36415;SDS011;22447;44.530;18.620;2023-01-30T03:52:07;66.50;;;32.60;;
36415;SDS011;22447;44.530;18.620;2023-01-30T03:54:33;63.83;;;32.15;;
36415;SDS011;22447;44.530;18.620;2023-01-30T03:56:59;64.72;;;31.25;;
36415;SDS011;22447;44.530;18.620;2023-01-30T03:59:25;62.97;;;31.70;;
36415;SDS011;22447;44.530;18.620;2023-01-30T04:01:59;58.10;;;31.20;;
36415;SDS011;22447;44.530;18.620;2023-01-30T04:04:25;65.15;;;33.60;;
36415;SDS011;22447;44.530;18.620;2023-01-30T04:06:51;64.70;;;33.60;;
36415;SDS011;22447;44.530;18.620;2023-01-30T04:09:17;61.75;;;31.92;;
36415;SDS011;22447;44.530;18.620;2023-01-30T04:11:46;64.30;;;32.35;;
36415;SDS011;22447;44.530;18.620;2023-01-30T04:14:13;63.15;;;32.47;;
36415;SDS011;22447;44.530;18.620;2023-01-30T04:16:59;66.88;;;33.95;;
36415;SDS011;22447;44.530;18.620;2023-01-30T04:19:40;67.18;;;31.60;;
36415;SDS011;22447;44.530;18.620;2023-01-30T04:22:06;61.47;;;31.65;;
36415;SDS011;22447;44.530;18.620;2023-01-30T04:24:32;70.22;;;33.28;;
36415;SDS011;22447;44.530;18.620;2023-01-30T04:26:58;65.00;;;33.72;;
36415;SDS011;22447;44.530;18.620;2023-01-30T04:29:24;64.32;;;32.83;;
36415;SDS011;22447;44.530;18.620;2023-01-30T04:31:52;58.75;;;29.48;;
36415;SDS011;22447;44.530;18.620;2023-01-30T04:34:21;60.30;;;31.10;;
36415;SDS011;22447;44.530;18.620;2023-01-30T04:36:47;62.05;;;30.05;;
36415;SDS011;22447;44.530;18.620;2023-01-30T04:39:13;68.38;;;33.47;;
36415;SDS011;22447;44.530;18.620;2023-01-30T04:41:39;62.75;;;31.58;;
36415;SDS011;22447;44.530;18.620;2023-01-30T04:44:05;60.13;;;31.65;;
36415;SDS011;22447;44.530;18.620;2023-01-30T04:46:45;63.03;;;33.15;;
36415;SDS011;22447;44.530;18.620;2023-01-30T04:49:12;67.45;;;32.50;;
36415;SDS011;22447;44.530;18.620;2023-01-30T04:51:38;61.58;;;31.40;;
36415;SDS011;22447;44.530;18.620;2023-01-30T04:54:04;59.00;;;30.45;;
36415;SDS011;22447;44.530;18.620;2023-01-30T04:56:31;66.57;;;31.55;;
36415;SDS011;22447;44.530;18.620;2023-01-30T04:58:57;62.58;;;31.40;;
36415;SDS011;22447;44.530;18.620;2023-01-30T05:01:31;64.70;;;33.72;;
36415;SDS011;22447;44.530;18.620;2023-01-30T05:04:00;64.43;;;32.45;;
36415;SDS011;22447;44.530;18.620;2023-01-30T05:06:27;63.25;;;32.42;;
36415;SDS011;22447;44.530;18.620;2023-01-30T05:08:55;62.47;;;31.98;;
36415;SDS011;22447;44.530;18.620;2023-01-30T05:11:21;71.45;;;33.00;;
36415;SDS011;22447;44.530;18.620;2023-01-30T05:13:48;73.35;;;37.15;;
36415;SDS011;22447;44.530;18.620;2023-01-30T05:16:15;66.07;;;34.42;;
36415;SDS011;22447;44.530;18.620;2023-01-30T05:18:42;71.57;;;35.92;;
36415;SDS011;22447;44.530;18.620;2023-01-30T05:23:36;72.32;;;36.20;;
36415;SDS011;22447;44.530;18.620;2023-01-30T05:26:02;74.28;;;34.28;;
36415;SDS011;22447;44.530;18.620;2023-01-30T05:28:28;69.68;;;35.40;;
36415;SDS011;22447;44.530;18.620;2023-01-30T05:31:15;74.35;;;35.78;;
36415;SDS011;22447;44.530;18.620;2023-01-30T05:33:40;76.30;;;35.47;;
36415;SDS011;22447;44.530;18.620;2023-01-30T05:36:06;76.90;;;36.05;;
36415;SDS011;22447;44.530;18.620;2023-01-30T05:38:37;70.35;;;36.42;;
36415;SDS011;22447;44.530;18.620;2023-01-30T05:41:04;73.80;;;37.05;;
36415;SDS011;22447;44.530;18.620;2023-01-30T05:43:32;64.68;;;34.88;;
36415;SDS011;22447;44.530;18.620;2023-01-30T05:45:59;76.30;;;37.67;;
36415;SDS011;22447;44.530;18.620;2023-01-30T05:48:27;74.10;;;36.65;;
36415;SDS011;22447;44.530;18.620;2023-01-30T05:50:54;76.38;;;35.78;;
36415;SDS011;22447;44.530;18.620;2023-01-30T05:53:22;76.65;;;37.20;;
36415;SDS011;22447;44.530;18.620;2023-01-30T05:55:56;79.15;;;38.78;;
36415;SDS011;22447;44.530;18.620;2023-01-30T05:58:22;78.32;;;39.10;;
36415;SDS011;22447;44.530;18.620;2023-01-30T06:00:49;66.57;;;33.15;;
36415;SDS011;22447;44.530;18.620;2023-01-30T06:03:15;66.55;;;33.85;;
36415;SDS011;22447;44.530;18.620;2023-01-30T06:05:41;67.68;;;34.85;;
36415;SDS011;22447;44.530;18.620;2023-01-30T06:08:07;74.70;;;35.72;;
36415;SDS011;22447;44.530;18.620;2023-01-30T06:10:33;73.05;;;36.53;;
36415;SDS011;22447;44.530;18.620;2023-01-30T06:13:00;73.95;;;36.92;;
36415;SDS011;22447;44.530;18.620;2023-01-30T06:15:26;72.97;;;37.25;;
36415;SDS011;22447;44.530;18.620;2023-01-30T06:17:52;81.93;;;41.95;;
36415;SDS011;22447;44.530;18.620;2023-01-30T06:20:18;82.22;;;41.75;;
36415;SDS011;22447;44.530;18.620;2023-01-30T06:22:44;86.28;;;40.72;;
36415;SDS011;22447;44.530;18.620;2023-01-30T06:25:10;86.68;;;41.75;;
36415;SDS011;22447;44.530;18.620;2023-01-30T06:27:36;96.13;;;46.42;;
36415;SDS011;22447;44.530;18.620;2023-01-30T06:30:02;95.38;;;45.35;;
36415;SDS011;22447;44.530;18.620;2023-01-30T06:32:28;118.10;;;65.68;;
36415;SDS011;22447;44.530;18.620;2023-01-30T06:34:54;126.50;;;68.15;;
36415;SDS011;22447;44.530;18.620;2023-01-30T06:37:20;95.75;;;46.58;;
36415;SDS011;22447;44.530;18.620;2023-01-30T06:39:46;83.25;;;42.10;;
36415;SDS011;22447;44.530;18.620;2023-01-30T06:42:12;87.35;;;42.28;;
36415;SDS011;22447;44.530;18.620;2023-01-30T06:44:38;93.55;;;46.20;;
36415;SDS011;22447;44.530;18.620;2023-01-30T06:47:07;88.00;;;43.63;;
36415;SDS011;22447;44.530;18.620;2023-01-30T06:49:33;90.43;;;46.05;;
36415;SDS011;22447;44.530;18.620;2023-01-30T06:51:59;102.03;;;46.70;;
36415;SDS011;22447;44.530;18.620;2023-01-30T06:54:25;105.78;;;50.42;;
36415;SDS011;22447;44.530;18.620;2023-01-30T06:56:51;113.38;;;51.45;;
36415;SDS011;22447;44.530;18.620;2023-01-30T06:59:17;111.40;;;50.95;;
36415;SDS011;22447;44.530;18.620;2023-01-30T07:01:43;120.72;;;55.05;;
36415;SDS011;22447;44.530;18.620;2023-01-30T07:04:09;124.88;;;55.85;;
36415;SDS011;22447;44.530;18.620;2023-01-30T07:06:35;111.47;;;50.58;;
36415;SDS011;22447;44.530;18.620;2023-01-30T07:09:01;108.25;;;49.17;;
36415;SDS011;22447;44.530;18.620;2023-01-30T07:11:27;110.95;;;47.33;;
36415;SDS011;22447;44.530;18.620;2023-01-30T07:13:53;106.13;;;47.65;;
36415;SDS011;22447;44.530;18.620;2023-01-30T07:16:19;113.82;;;54.28;;
36415;SDS011;22447;44.530;18.620;2023-01-30T07:18:48;99.10;;;47.53;;
36415;SDS011;22447;44.530;18.620;2023-01-30T07:21:13;103.47;;;46.67;;
36415;SDS011;22447;44.530;18.620;2023-01-30T07:23:39;98.57;;;49.00;;
36415;SDS011;22447;44.530;18.620;2023-01-30T07:26:05;101.82;;;47.20;;
36415;SDS011;22447;44.530;18.620;2023-01-30T07:28:31;108.65;;;50.05;;
36415;SDS011;22447;44.530;18.620;2023-01-30T07:31:00;109.80;;;48.47;;
36415;SDS011;22447;44.530;18.620;2023-01-30T07:33:26;118.75;;;51.15;;
36415;SDS011;22447;44.530;18.620;2023-01-30T07:35:52;110.00;;;52.05;;
36415;SDS011;22447;44.530;18.620;2023-01-30T07:38:19;114.47;;;53.92;;
36415;SDS011;22447;44.530;18.620;2023-01-30T07:40:45;121.85;;;55.47;;
36415;SDS011;22447;44.530;18.620;2023-01-30T07:43:11;133.13;;;61.65;;
36415;SDS011;22447;44.530;18.620;2023-01-30T07:45:46;117.47;;;58.88;;
36415;SDS011;22447;44.530;18.620;2023-01-30T07:48:13;125.25;;;61.83;;
36415;SDS011;22447;44.530;18.620;2023-01-30T07:50:41;125.03;;;60.38;;
36415;SDS011;22447;44.530;18.620;2023-01-30T07:53:08;130.27;;;62.45;;
36415;SDS011;22447;44.530;18.620;2023-01-30T07:55:36;150.57;;;73.70;;
36415;SDS011;22447;44.530;18.620;2023-01-30T07:58:02;155.73;;;70.30;;
36415;SDS011;22447;44.530;18.620;2023-01-30T08:00:29;152.63;;;68.97;;
36415;SDS011;22447;44.530;18.620;2023-01-30T08:02:55;156.38;;;72.55;;
36415;SDS011;22447;44.530;18.620;2023-01-30T08:05:21;160.55;;;74.05;;
36415;SDS011;22447;44.530;18.620;2023-01-30T08:07:47;163.50;;;75.07;;
36415;SDS011;22447;44.530;18.620;2023-01-30T08:10:13;164.05;;;76.60;;
36415;SDS011;22447;44.530;18.620;2023-01-30T08:12:40;158.38;;;74.05;;
36415;SDS011;22447;44.530;18.620;2023-01-30T08:15:07;143.07;;;66.35;;
36415;SDS011;22447;44.530;18.620;2023-01-30T08:17:34;141.63;;;66.07;;
36415;SDS011;22447;44.530;18.620;2023-01-30T08:20:00;135.50;;;63.08;;
36415;SDS011;22447;44.530;18.620;2023-01-30T08:22:35;132.77;;;61.90;;
36415;SDS011;22447;44.530;18.620;2023-01-30T08:25:01;135.10;;;63.90;;
36415;SDS011;22447;44.530;18.620;2023-01-30T08:27:27;128.07;;;60.97;;
36415;SDS011;22447;44.530;18.620;2023-01-30T08:29:53;130.32;;;62.88;;
36415;SDS011;22447;44.530;18.620;2023-01-30T08:32:19;133.65;;;63.83;;
36415;SDS011;22447;44.530;18.620;2023-01-30T08:34:45;127.65;;;60.53;;
36415;SDS011;22447;44.530;18.620;2023-01-30T08:37:11;122.85;;;58.00;;
36415;SDS011;22447;44.530;18.620;2023-01-30T08:39:37;135.70;;;60.10;;
36415;SDS011;22447;44.530;18.620;2023-01-30T08:42:03;138.32;;;59.70;;
36415;SDS011;22447;44.530;18.620;2023-01-30T08:44:29;142.05;;;60.47;;
36415;SDS011;22447;44.530;18.620;2023-01-30T08:46:58;138.85;;;61.85;;
36415;SDS011;22447;44.530;18.620;2023-01-30T08:49:24;138.75;;;59.45;;
36415;SDS011;22447;44.530;18.620;2023-01-30T08:51:50;114.60;;;53.45;;
36415;SDS011;22447;44.530;18.620;2023-01-30T08:54:15;131.52;;;55.53;;
36415;SDS011;22447;44.530;18.620;2023-01-30T08:56:41;131.95;;;55.55;;
36415;SDS011;22447;44.530;18.620;2023-01-30T08:59:07;131.38;;;56.35;;
36415;SDS011;22447;44.530;18.620;2023-01-30T09:01:33;132.48;;;52.70;;
36415;SDS011;22447;44.530;18.620;2023-01-30T09:03:59;141.32;;;53.63;;
36415;SDS011;22447;44.530;18.620;2023-01-30T09:06:25;104.10;;;41.85;;
36415;SDS011;22447;44.530;18.620;2023-01-30T09:08:51;88.35;;;42.00;;
36415;SDS011;22447;44.530;18.620;2023-01-30T09:11:17;79.25;;;34.17;;
36415;SDS011;22447;44.530;18.620;2023-01-30T09:13:43;55.15;;;25.27;;
36415;SDS011;22447;44.530;18.620;2023-01-30T09:16:09;55.13;;;26.42;;
36415;SDS011;22447;44.530;18.620;2023-01-30T09:18:39;75.43;;;26.27;;
36415;SDS011;22447;44.530;18.620;2023-01-30T09:21:06;47.65;;;21.48;;
36415;SDS011;22447;44.530;18.620;2023-01-30T09:23:33;57.75;;;25.02;;
36415;SDS011;22447;44.530;18.620;2023-01-30T09:26:02;78.25;;;28.60;;
36415;SDS011;22447;44.530;18.620;2023-01-30T09:28:29;63.95;;;28.23;;
36415;SDS011;22447;44.530;18.620;2023-01-30T09:30:56;58.80;;;28.25;;
36415;SDS011;22447;44.530;18.620;2023-01-30T09:33:23;74.53;;;32.88;;
36415;SDS011;22447;44.530;18.620;2023-01-30T09:35:49;65.47;;;29.75;;
36415;SDS011;22447;44.530;18.620;2023-01-30T09:38:16;72.53;;;30.02;;
36415;SDS011;22447;44.530;18.620;2023-01-30T09:40:59;75.95;;;32.88;;
36415;SDS011;22447;44.530;18.620;2023-01-30T09:46:45;80.57;;;33.30;;
36415;SDS011;22447;44.530;18.620;2023-01-30T09:49:29;65.45;;;29.27;;
36415;SDS011;22447;44.530;18.620;2023-01-30T09:52:15;59.92;;;29.77;;
36415;SDS011;22447;44.530;18.620;2023-01-30T09:55:17;58.75;;;26.63;;
36415;SDS011;22447;44.530;18.620;2023-01-30T09:57:48;61.25;;;27.25;;
36415;SDS011;22447;44.530;18.620;2023-01-30T10:00:22;59.95;;;29.27;;
36415;SDS011;22447;44.530;18.620;2023-01-30T10:03:14;57.72;;;29.65;;
36415;SDS011;22447;44.530;18.620;2023-01-30T10:05:58;68.35;;;30.67;;
36415;SDS011;22447;44.530;18.620;2023-01-30T10:14:24;74.15;;;33.47;;
36415;SDS011;22447;44.530;18.620;2023-01-30T10:27:28;64.90;;;30.75;;
36415;SDS011;22447;44.530;18.620;2023-01-30T10:29:58;60.75;;;30.92;;
36415;SDS011;22447;44.530;18.620;2023-01-30T10:32:28;80.03;;;37.13;;
36415;SDS011;22447;44.530;18.620;2023-01-30T10:37:50;105.00;;;36.92;;
36415;SDS011;22447;44.530;18.620;2023-01-30T10:43:43;60.38;;;32.70;;
36415;SDS011;22447;44.530;18.620;2023-01-30T10:46:34;83.63;;;34.22;;
36415;SDS011;22447;44.530;18.620;2023-01-30T10:49:17;74.30;;;33.60;;
36415;SDS011;22447;44.530;18.620;2023-01-30T10:52:06;66.82;;;31.95;;
36415;SDS011;22447;44.530;18.620;2023-01-30T10:54:51;78.18;;;34.50;;
36415;SDS011;22447;44.530;18.620;2023-01-30T10:57:30;87.55;;;34.97;;
36415;SDS011;22447;44.530;18.620;2023-01-30T11:00:21;72.80;;;34.90;;
36415;SDS011;22447;44.530;18.620;2023-01-30T11:05:44;84.28;;;35.83;;
36415;SDS011;22447;44.530;18.620;2023-01-30T11:08:33;75.20;;;34.72;;
36415;SDS011;22447;44.530;18.620;2023-01-30T11:10:59;97.32;;;45.25;;
36415;SDS011;22447;44.530;18.620;2023-01-30T11:13:45;75.55;;;34.20;;
36415;SDS011;22447;44.530;18.620;2023-01-30T11:16:11;87.07;;;35.50;;
36415;SDS011;22447;44.530;18.620;2023-01-30T11:18:47;74.53;;;36.10;;
36415;SDS011;22447;44.530;18.620;2023-01-30T11:21:22;78.93;;;33.42;;
36415;SDS011;22447;44.530;18.620;2023-01-30T11:23:50;79.72;;;35.83;;
36415;SDS011;22447;44.530;18.620;2023-01-30T11:26:28;89.30;;;36.75;;
36415;SDS011;22447;44.530;18.620;2023-01-30T11:28:57;88.80;;;37.40;;
36415;SDS011;22447;44.530;18.620;2023-01-30T11:31:26;87.32;;;37.95;;
36415;SDS011;22447;44.530;18.620;2023-01-30T11:34:01;98.95;;;39.90;;
36415;SDS011;22447;44.530;18.620;2023-01-30T11:36:30;77.32;;;37.13;;
36415;SDS011;22447;44.530;18.620;2023-01-30T11:39:02;87.78;;;37.17;;
36415;SDS011;22447;44.530;18.620;2023-01-30T11:44:21;85.38;;;36.88;;
36415;SDS011;22447;44.530;18.620;2023-01-30T11:46:51;87.38;;;39.35;;
36415;SDS011;22447;44.530;18.620;2023-01-30T11:49:18;79.05;;;36.38;;
36415;SDS011;22447;44.530;18.620;2023-01-30T11:51:46;76.90;;;36.03;;
36415;SDS011;22447;44.530;18.620;2023-01-30T11:54:17;69.72;;;34.75;;
36415;SDS011;22447;44.530;18.620;2023-01-30T11:56:51;68.43;;;35.00;;
36415;SDS011;22447;44.530;18.620;2023-01-30T12:04:49;94.90;;;44.80;;
36415;SDS011;22447;44.530;18.620;2023-01-30T12:07:24;69.43;;;35.88;;
36415;SDS011;22447;44.530;18.620;2023-01-30T12:09:52;69.22;;;35.65;;
36415;SDS011;22447;44.530;18.620;2023-01-30T12:14:47;75.90;;;34.75;;
36415;SDS011;22447;44.530;18.620;2023-01-30T12:17:21;68.35;;;35.22;;
36415;SDS011;22447;44.530;18.620;2023-01-30T12:20:02;69.35;;;35.63;;
36415;SDS011;22447;44.530;18.620;2023-01-30T12:31:19;80.25;;;43.00;;
36415;SDS011;22447;44.530;18.620;2023-01-30T12:34:12;81.25;;;38.97;;
36415;SDS011;22447;44.530;18.620;2023-01-30T12:36:50;67.28;;;37.05;;
36415;SDS011;22447;44.530;18.620;2023-01-30T12:45:18;64.82;;;36.00;;
36415;SDS011;22447;44.530;18.620;2023-01-30T12:50:24;68.75;;;37.08;;
36415;SDS011;22447;44.530;18.620;2023-01-30T12:53:05;86.40;;;39.22;;
36415;SDS011;22447;44.530;18.620;2023-01-30T12:59:06;90.45;;;37.65;;
36415;SDS011;22447;44.530;18.620;2023-01-30T13:01:43;81.78;;;38.03;;
36415;SDS011;22447;44.530;18.620;2023-01-30T13:04:43;99.20;;;38.90;;
36415;SDS011;22447;44.530;18.620;2023-01-30T13:10:12;80.93;;;37.60;;
36415;SDS011;22447;44.530;18.620;2023-01-30T13:18:56;69.05;;;33.47;;
36415;SDS011;22447;44.530;18.620;2023-01-30T13:21:43;71.90;;;33.38;;
36415;SDS011;22447;44.530;18.620;2023-01-30T13:24:38;102.03;;;38.35;;
36415;SDS011;22447;44.530;18.620;2023-01-30T13:27:12;63.85;;;29.70;;
36415;SDS011;22447;44.530;18.620;2023-01-30T13:29:43;129.55;;;32.13;;
36415;SDS011;22447;44.530;18.620;2023-01-30T13:35:08;61.67;;;30.90;;
36415;SDS011;22447;44.530;18.620;2023-01-30T13:37:59;85.28;;;34.95;;
36415;SDS011;22447;44.530;18.620;2023-01-30T13:40:27;67.35;;;31.95;;
36415;SDS011;22447;44.530;18.620;2023-01-30T13:43:06;68.22;;;31.02;;
36415;SDS011;22447;44.530;18.620;2023-01-30T13:45:48;81.47;;;33.97;;
36415;SDS011;22447;44.530;18.620;2023-01-30T13:50:54;65.43;;;31.65;;
36415;SDS011;22447;44.530;18.620;2023-01-30T14:00:59;71.97;;;32.13;;
36415;SDS011;22447;44.530;18.620;2023-01-30T14:03:26;78.63;;;33.10;;
36415;SDS011;22447;44.530;18.620;2023-01-30T14:08:47;67.10;;;33.65;;
36415;SDS011;22447;44.530;18.620;2023-01-30T14:11:59;68.78;;;32.03;;
36415;SDS011;22447;44.530;18.620;2023-01-30T14:14:28;64.68;;;29.88;;
36415;SDS011;22447;44.530;18.620;2023-01-30T14:17:06;72.15;;;31.67;;
36415;SDS011;22447;44.530;18.620;2023-01-30T14:19:34;76.20;;;33.92;;
36415;SDS011;22447;44.530;18.620;2023-01-30T14:22:14;78.32;;;36.35;;
36415;SDS011;22447;44.530;18.620;2023-01-30T14:27:50;85.22;;;34.10;;
36415;SDS011;22447;44.530;18.620;2023-01-30T14:30:52;65.22;;;31.08;;
36415;SDS011;22447;44.530;18.620;2023-01-30T14:38:23;86.00;;;33.83;;
36415;SDS011;22447;44.530;18.620;2023-01-30T14:43:25;71.30;;;31.15;;
36415;SDS011;22447;44.530;18.620;2023-01-30T14:46:02;79.00;;;32.17;;
36415;SDS011;22447;44.530;18.620;2023-01-30T14:48:31;66.22;;;30.52;;
36415;SDS011;22447;44.530;18.620;2023-01-30T14:51:09;81.95;;;35.70;;
36415;SDS011;22447;44.530;18.620;2023-01-30T14:53:46;84.85;;;35.88;;
36415;SDS011;22447;44.530;18.620;2023-01-30T14:56:39;73.80;;;33.78;;
36415;SDS011;22447;44.530;18.620;2023-01-30T14:59:31;82.75;;;35.85;;
36415;SDS011;22447;44.530;18.620;2023-01-30T15:16:04;73.97;;;35.33;;
36415;SDS011;22447;44.530;18.620;2023-01-30T15:18:39;90.28;;;38.78;;
36415;SDS011;22447;44.530;18.620;2023-01-30T15:21:41;107.43;;;45.47;;
36415;SDS011;22447;44.530;18.620;2023-01-30T15:29:38;140.68;;;53.70;;
36415;SDS011;22447;44.530;18.620;2023-01-30T15:32:24;90.78;;;39.25;;
36415;SDS011;22447;44.530;18.620;2023-01-30T15:34:56;111.07;;;39.55;;
36415;SDS011;22447;44.530;18.620;2023-01-30T15:51:17;74.53;;;36.50;;
36415;SDS011;22447;44.530;18.620;2023-01-30T15:53:51;91.03;;;40.38;;
36415;SDS011;22447;44.530;18.620;2023-01-30T15:56:22;105.40;;;48.17;;
36415;SDS011;22447;44.530;18.620;2023-01-30T15:58:51;98.95;;;42.55;;
36415;SDS011;22447;44.530;18.620;2023-01-30T16:01:20;95.65;;;39.60;;
36415;SDS011;22447;44.530;18.620;2023-01-30T16:03:47;84.72;;;37.65;;
36415;SDS011;22447;44.530;18.620;2023-01-30T16:06:34;95.85;;;38.33;;
36415;SDS011;22447;44.530;18.620;2023-01-30T16:09:02;87.15;;;36.55;;
36415;SDS011;22447;44.530;18.620;2023-01-30T16:11:31;85.22;;;37.17;;
36415;SDS011;22447;44.530;18.620;2023-01-30T16:14:02;83.90;;;35.63;;
36415;SDS011;22447;44.530;18.620;2023-01-30T16:16:28;86.15;;;38.70;;
36415;SDS011;22447;44.530;18.620;2023-01-30T16:18:59;117.85;;;42.60;;
36415;SDS011;22447;44.530;18.620;2023-01-30T16:21:29;107.53;;;43.05;;
36415;SDS011;22447;44.530;18.620;2023-01-30T16:26:50;101.50;;;45.35;;
36415;SDS011;22447;44.530;18.620;2023-01-30T16:29:20;96.25;;;42.35;;
36415;SDS011;22447;44.530;18.620;2023-01-30T16:31:49;116.63;;;44.15;;
36415;SDS011;22447;44.530;18.620;2023-01-30T16:36:52;96.10;;;42.33;;
36415;SDS011;22447;44.530;18.620;2023-01-30T16:39:27;86.20;;;39.42;;
36415;SDS011;22447;44.530;18.620;2023-01-30T16:41:56;88.68;;;39.20;;
36415;SDS011;22447;44.530;18.620;2023-01-30T16:44:23;88.75;;;39.08;;
36415;SDS011;22447;44.530;18.620;2023-01-30T16:49:44;107.47;;;51.25;;
36415;SDS011;22447;44.530;18.620;2023-01-30T16:52:29;112.22;;;47.55;;
36415;SDS011;22447;44.530;18.620;2023-01-30T16:55:04;89.70;;;40.58;;
36415;SDS011;22447;44.530;18.620;2023-01-30T16:57:40;85.97;;;38.60;;
36415;SDS011;22447;44.530;18.620;2023-01-30T17:03:00;91.95;;;40.20;;
36415;SDS011;22447;44.530;18.620;2023-01-30T17:05:37;83.13;;;36.95;;
36415;SDS011;22447;44.530;18.620;2023-01-30T17:08:14;107.40;;;47.53;;
36415;SDS011;22447;44.530;18.620;2023-01-30T17:10:58;171.98;;;74.47;;
36415;SDS011;22447;44.530;18.620;2023-01-30T17:13:29;156.68;;;67.90;;
36415;SDS011;22447;44.530;18.620;2023-01-30T17:18:50;278.48;;;125.63;;
36415;SDS011;22447;44.530;18.620;2023-01-30T17:21:17;294.15;;;134.43;;
36415;SDS011;22447;44.530;18.620;2023-01-30T17:23:48;289.58;;;132.45;;
36415;SDS011;22447;44.530;18.620;2023-01-30T17:26:29;248.65;;;109.55;;
36415;SDS011;22447;44.530;18.620;2023-01-30T17:28:56;238.45;;;110.15;;
36415;SDS011;22447;44.530;18.620;2023-01-30T17:31:22;223.00;;;101.75;;
36415;SDS011;22447;44.530;18.620;2023-01-30T17:33:48;209.85;;;97.63;;